sensor_id;sensor_type;location;lat;lon;timestamp;P1;durP1;ratioP1;P2;durP2;ratioP2
59960;SDS011;55902;-37.980;-63.602;2023-02-15T00:00:46;8.20;;;5.80;;
59960;SDS011;55902;-37.980;-63.602;2023-02-15T00:03:14;14.90;;;11.60;;
59960;SDS011;55902;-37.980;-63.602;2023-02-15T00:05:42;16.70;;;14.90;;
59960;SDS011;55902;-37.980;-63.602;2023-02-15T00:08:09;11.88;;;9.77;;
59960;SDS011;55902;-37.980;-63.602;2023-02-15T00:10:39;11.00;;;6.68;;
59960;SDS011;55902;-37.980;-63.602;2023-02-15T00:13:09;8.40;;;5.68;;
59960;SDS011;55902;-37.980;-63.602;2023-02-15T00:15:36;16.98;;;3.00;;
59960;SDS011;55902;-37.980;-63.602;2023-02-15T00:28:10;15.00;;;1.95;;
59960;SDS011;55902;-37.980;-63.602;2023-02-15T00:30:36;12.07;;;1.83;;
59960;SDS011;55902;-37.980;-63.602;2023-02-15T00:33:04;17.42;;;1.80;;
59960;SDS011;55902;-37.980;-63.602;2023-02-15T00:35:31;15.15;;;2.40;;
59960;SDS011;55902;-37.980;-63.602;2023-02-15T00:38:00;14.07;;;2.05;;
59960;SDS011;55902;-37.980;-63.602;2023-02-15T00:40:27;13.57;;;1.95;;
59960;SDS011;55902;-37.980;-63.602;2023-02-15T00:42:58;12.13;;;2.05;;
59960;SDS011;55902;-37.980;-63.602;2023-02-15T00:45:26;8.93;;;1.80;;
59960;SDS011;55902;-37.980;-63.602;2023-02-15T00:47:56;12.98;;;1.80;;
59960;SDS011;55902;-37.980;-63.602;2023-02-15T00:50:23;9.20;;;1.60;;
59960;SDS011;55902;-37.980;-63.602;2023-02-15T00:52:50;8.55;;;1.52;;
59960;SDS011;55902;-37.980;-63.602;2023-02-15T00:55:20;9.38;;;1.73;;
59960;SDS011;55902;-37.980;-63.602;2023-02-15T00:57:50;11.95;;;1.70;;
59960;SDS011;55902;-37.980;-63.602;2023-02-15T01:00:17;7.30;;;1.30;;
59960;SDS011;55902;-37.980;-63.602;2023-02-15T01:02:44;11.75;;;1.80;;
59960;SDS011;55902;-37.980;-63.602;2023-02-15T01:05:12;10.55;;;1.60;;
59960;SDS011;55902;-37.980;-63.602;2023-02-15T01:07:45;5.47;;;1.40;;
59960;SDS011;55902;-37.980;-63.602;2023-02-15T01:10:12;11.10;;;1.92;;
59960;SDS011;55902;-37.980;-63.602;2023-02-15T01:12:42;8.63;;;1.70;;
59960;SDS011;55902;-37.980;-63.602;2023-02-15T01:15:09;8.05;;;1.52;;
59960;SDS011;55902;-37.980;-63.602;2023-02-15T01:17:39;10.63;;;1.80;;
59960;SDS011;55902;-37.980;-63.602;2023-02-15T01:20:06;12.65;;;1.55;;
59960;SDS011;55902;-37.980;-63.602;2023-02-15T01:22:34;16.73;;;2.35;;
59960;SDS011;55902;-37.980;-63.602;2023-02-15T01:25:04;16.23;;;2.83;;
59960;SDS011;55902;-37.980;-63.602;2023-02-15T01:27:32;16.55;;;2.58;;
59960;SDS011;55902;-37.980;-63.602;2023-02-15T01:29:58;11.07;;;2.03;;
59960;SDS011;55902;-37.980;-63.602;2023-02-15T01:32:25;13.88;;;2.78;;
59960;SDS011;55902;-37.980;-63.602;2023-02-15T01:34:52;6.25;;;1.40;;
59960;SDS011;55902;-37.980;-63.602;2023-02-15T01:37:20;8.68;;;1.63;;
59960;SDS011;55902;-37.980;-63.602;2023-02-15T01:39:47;11.57;;;2.33;;
59960;SDS011;55902;-37.980;-63.602;2023-02-15T01:42:23;9.82;;;2.00;;
59960;SDS011;55902;-37.980;-63.602;2023-02-15T01:44:53;8.57;;;1.60;;
59960;SDS011;55902;-37.980;-63.602;2023-02-15T01:47:35;7.40;;;1.52;;
59960;SDS011;55902;-37.980;-63.602;2023-02-15T01:50:15;10.02;;;1.58;;
59960;SDS011;55902;-37.980;-63.602;2023-02-15T01:52:57;10.00;;;1.83;;
59960;SDS011;55902;-37.980;-63.602;2023-02-15T01:55:29;6.33;;;1.57;;
59960;SDS011;55902;-37.980;-63.602;2023-02-15T01:58:02;6.35;;;1.42;;
59960;SDS011;55902;-37.980;-63.602;2023-02-15T02:00:29;8.95;;;1.40;;
59960;SDS011;55902;-37.980;-63.602;2023-02-15T02:03:01;9.23;;;1.38;;
59960;SDS011;55902;-37.980;-63.602;2023-02-15T02:05:29;9.23;;;1.17;;
59960;SDS011;55902;-37.980;-63.602;2023-02-15T02:07:58;7.88;;;1.20;;
59960;SDS011;55902;-37.980;-63.602;2023-02-15T02:10:29;4.82;;;1.00;;
59960;SDS011;55902;-37.980;-63.602;2023-02-15T02:13:01;4.07;;;1.00;;
59960;SDS011;55902;-37.980;-63.602;2023-02-15T02:30:02;7.68;;;1.10;;
59960;SDS011;55902;-37.980;-63.602;2023-02-15T02:46:13;3.17;;;1.00;;
59960;SDS011;55902;-37.980;-63.602;2023-02-15T02:48:51;3.08;;;1.10;;
59960;SDS011;55902;-37.980;-63.602;2023-02-15T02:51:19;2.83;;;1.08;;
59960;SDS011;55902;-37.980;-63.602;2023-02-15T02:53:51;3.10;;;1.00;;
59960;SDS011;55902;-37.980;-63.602;2023-02-15T02:56:28;4.72;;;1.20;;
59960;SDS011;55902;-37.980;-63.602;2023-02-15T02:59:01;7.25;;;1.42;;
59960;SDS011;55902;-37.980;-63.602;2023-02-15T03:01:44;10.00;;;2.95;;
59960;SDS011;55902;-37.980;-63.602;2023-02-15T03:04:32;14.00;;;3.65;;
59960;SDS011;55902;-37.980;-63.602;2023-02-15T03:14:49;3.28;;;1.13;;
59960;SDS011;55902;-37.980;-63.602;2023-02-15T03:17:23;4.47;;;1.20;;
59960;SDS011;55902;-37.980;-63.602;2023-02-15T03:19:54;4.60;;;1.15;;
59960;SDS011;55902;-37.980;-63.602;2023-02-15T03:22:28;3.25;;;1.10;;
59960;SDS011;55902;-37.980;-63.602;2023-02-15T03:25:09;2.85;;;1.10;;
59960;SDS011;55902;-37.980;-63.602;2023-02-15T03:27:53;4.78;;;1.10;;
59960;SDS011;55902;-37.980;-63.602;2023-02-15T03:52:38;3.67;;;1.20;;
59960;SDS011;55902;-37.980;-63.602;2023-02-15T03:55:05;2.58;;;1.20;;
59960;SDS011;55902;-37.980;-63.602;2023-02-15T03:57:34;2.90;;;1.10;;
59960;SDS011;55902;-37.980;-63.602;2023-02-15T04:00:24;3.05;;;1.20;;
59960;SDS011;55902;-37.980;-63.602;2023-02-15T04:03:19;3.60;;;1.20;;
59960;SDS011;55902;-37.980;-63.602;2023-02-15T04:06:10;3.25;;;1.30;;
59960;SDS011;55902;-37.980;-63.602;2023-02-15T04:08:37;3.88;;;1.30;;
59960;SDS011;55902;-37.980;-63.602;2023-02-15T04:11:22;4.20;;;1.33;;
59960;SDS011;55902;-37.980;-63.602;2023-02-15T04:13:49;4.88;;;1.20;;
59960;SDS011;55902;-37.980;-63.602;2023-02-15T04:16:22;5.50;;;1.48;;
59960;SDS011;55902;-37.980;-63.602;2023-02-15T04:18:50;2.45;;;1.20;;
59960;SDS011;55902;-37.980;-63.602;2023-02-15T04:24:49;2.65;;;1.10;;
59960;SDS011;55902;-37.980;-63.602;2023-02-15T04:34:10;1.52;;;1.20;;
59960;SDS011;55902;-37.980;-63.602;2023-02-15T04:39:58;2.17;;;1.30;;
59960;SDS011;55902;-37.980;-63.602;2023-02-15T04:42:32;5.50;;;1.10;;
59960;SDS011;55902;-37.980;-63.602;2023-02-15T04:44:59;2.42;;;1.30;;
59960;SDS011;55902;-37.980;-63.602;2023-02-15T04:47:26;4.97;;;1.20;;
59960;SDS011;55902;-37.980;-63.602;2023-02-15T04:49:53;4.65;;;1.20;;
59960;SDS011;55902;-37.980;-63.602;2023-02-15T04:55:42;4.90;;;1.38;;
59960;SDS011;55902;-37.980;-63.602;2023-02-15T04:58:12;3.45;;;1.20;;
59960;SDS011;55902;-37.980;-63.602;2023-02-15T05:00:39;3.03;;;1.10;;
59960;SDS011;55902;-37.980;-63.602;2023-02-15T05:03:06;4.15;;;1.10;;
59960;SDS011;55902;-37.980;-63.602;2023-02-15T05:05:37;4.07;;;1.10;;
59960;SDS011;55902;-37.980;-63.602;2023-02-15T05:08:07;3.75;;;1.02;;
59960;SDS011;55902;-37.980;-63.602;2023-02-15T05:10:34;2.58;;;1.10;;
59960;SDS011;55902;-37.980;-63.602;2023-02-15T05:13:01;4.20;;;1.40;;
59960;SDS011;55902;-37.980;-63.602;2023-02-15T05:15:30;2.45;;;1.10;;
59960;SDS011;55902;-37.980;-63.602;2023-02-15T05:17:57;4.50;;;1.20;;
59960;SDS011;55902;-37.980;-63.602;2023-02-15T05:20:28;3.60;;;1.17;;
59960;SDS011;55902;-37.980;-63.602;2023-02-15T05:22:54;3.72;;;1.20;;
59960;SDS011;55902;-37.980;-63.602;2023-02-15T05:25:22;4.13;;;1.10;;
59960;SDS011;55902;-37.980;-63.602;2023-02-15T05:28:10;3.55;;;1.00;;
59960;SDS011;55902;-37.980;-63.602;2023-02-15T05:33:31;2.42;;;1.10;;
59960;SDS011;55902;-37.980;-63.602;2023-02-15T05:35:59;2.10;;;1.10;;
59960;SDS011;55902;-37.980;-63.602;2023-02-15T05:38:26;3.30;;;1.27;;
59960;SDS011;55902;-37.980;-63.602;2023-02-15T05:40:53;3.10;;;1.20;;
59960;SDS011;55902;-37.980;-63.602;2023-02-15T05:43:20;4.22;;;1.05;;
59960;SDS011;55902;-37.980;-63.602;2023-02-15T05:45:49;2.70;;;1.20;;
59960;SDS011;55902;-37.980;-63.602;2023-02-15T05:48:22;2.70;;;1.20;;
59960;SDS011;55902;-37.980;-63.602;2023-02-15T05:51:03;2.35;;;1.10;;
59960;SDS011;55902;-37.980;-63.602;2023-02-15T05:53:38;2.33;;;1.23;;
59960;SDS011;55902;-37.980;-63.602;2023-02-15T05:56:07;2.08;;;1.20;;
59960;SDS011;55902;-37.980;-63.602;2023-02-15T05:58:39;2.70;;;1.10;;
59960;SDS011;55902;-37.980;-63.602;2023-02-15T06:01:11;2.38;;;1.25;;
59960;SDS011;55902;-37.980;-63.602;2023-02-15T06:03:51;4.53;;;1.50;;
59960;SDS011;55902;-37.980;-63.602;2023-02-15T06:06:21;4.33;;;1.10;;
59960;SDS011;55902;-37.980;-63.602;2023-02-15T06:08:48;2.47;;;1.10;;
59960;SDS011;55902;-37.980;-63.602;2023-02-15T06:11:15;3.40;;;1.20;;
59960;SDS011;55902;-37.980;-63.602;2023-02-15T06:13:42;2.92;;;1.10;;
59960;SDS011;55902;-37.980;-63.602;2023-02-15T06:16:09;4.32;;;1.33;;
59960;SDS011;55902;-37.980;-63.602;2023-02-15T06:18:36;2.63;;;1.27;;
59960;SDS011;55902;-37.980;-63.602;2023-02-15T06:21:03;4.53;;;1.20;;
59960;SDS011;55902;-37.980;-63.602;2023-02-15T06:23:33;2.20;;;1.20;;
59960;SDS011;55902;-37.980;-63.602;2023-02-15T06:26:03;3.30;;;1.30;;
59960;SDS011;55902;-37.980;-63.602;2023-02-15T06:28:30;4.22;;;1.20;;
59960;SDS011;55902;-37.980;-63.602;2023-02-15T06:31:01;2.72;;;1.30;;
59960;SDS011;55902;-37.980;-63.602;2023-02-15T06:33:30;2.67;;;1.30;;
59960;SDS011;55902;-37.980;-63.602;2023-02-15T06:36:05;3.88;;;1.20;;
59960;SDS011;55902;-37.980;-63.602;2023-02-15T06:38:35;2.28;;;1.30;;
59960;SDS011;55902;-37.980;-63.602;2023-02-15T06:41:02;4.25;;;1.42;;
59960;SDS011;55902;-37.980;-63.602;2023-02-15T06:43:34;5.95;;;1.30;;
59960;SDS011;55902;-37.980;-63.602;2023-02-15T06:46:00;3.80;;;1.38;;
59960;SDS011;55902;-37.980;-63.602;2023-02-15T06:48:27;3.70;;;1.33;;
59960;SDS011;55902;-37.980;-63.602;2023-02-15T06:50:54;5.22;;;1.70;;
59960;SDS011;55902;-37.980;-63.602;2023-02-15T06:53:28;7.28;;;1.48;;
59960;SDS011;55902;-37.980;-63.602;2023-02-15T06:56:02;4.55;;;1.30;;
59960;SDS011;55902;-37.980;-63.602;2023-02-15T06:58:38;5.20;;;1.20;;
59960;SDS011;55902;-37.980;-63.602;2023-02-15T07:01:08;7.65;;;1.50;;
59960;SDS011;55902;-37.980;-63.602;2023-02-15T07:03:35;3.15;;;1.30;;
59960;SDS011;55902;-37.980;-63.602;2023-02-15T07:06:05;2.72;;;1.30;;
59960;SDS011;55902;-37.980;-63.602;2023-02-15T07:08:37;5.50;;;1.30;;
59960;SDS011;55902;-37.980;-63.602;2023-02-15T07:11:05;6.47;;;1.40;;
59960;SDS011;55902;-37.980;-63.602;2023-02-15T07:13:53;3.38;;;1.40;;
59960;SDS011;55902;-37.980;-63.602;2023-02-15T07:16:20;5.50;;;1.48;;
59960;SDS011;55902;-37.980;-63.602;2023-02-15T07:18:50;8.52;;;1.45;;
59960;SDS011;55902;-37.980;-63.602;2023-02-15T07:21:17;3.78;;;1.30;;
59960;SDS011;55902;-37.980;-63.602;2023-02-15T07:23:51;3.67;;;1.40;;
59960;SDS011;55902;-37.980;-63.602;2023-02-15T07:26:21;3.30;;;1.38;;
59960;SDS011;55902;-37.980;-63.602;2023-02-15T07:28:48;6.82;;;1.60;;
59960;SDS011;55902;-37.980;-63.602;2023-02-15T07:31:15;4.28;;;1.27;;
59960;SDS011;55902;-37.980;-63.602;2023-02-15T07:33:42;3.92;;;1.45;;
59960;SDS011;55902;-37.980;-63.602;2023-02-15T07:36:11;3.28;;;1.30;;
59960;SDS011;55902;-37.980;-63.602;2023-02-15T07:38:40;6.20;;;1.50;;
59960;SDS011;55902;-37.980;-63.602;2023-02-15T07:41:11;4.60;;;1.30;;
59960;SDS011;55902;-37.980;-63.602;2023-02-15T07:43:43;5.75;;;1.30;;
59960;SDS011;55902;-37.980;-63.602;2023-02-15T07:46:16;6.47;;;1.48;;
59960;SDS011;55902;-37.980;-63.602;2023-02-15T07:48:43;4.95;;;1.50;;
59960;SDS011;55902;-37.980;-63.602;2023-02-15T07:51:14;6.47;;;1.40;;
59960;SDS011;55902;-37.980;-63.602;2023-02-15T07:53:41;3.60;;;1.40;;
59960;SDS011;55902;-37.980;-63.602;2023-02-15T07:56:11;3.45;;;1.50;;
59960;SDS011;55902;-37.980;-63.602;2023-02-15T07:58:39;3.83;;;1.40;;
59960;SDS011;55902;-37.980;-63.602;2023-02-15T08:01:21;3.70;;;1.50;;
59960;SDS011;55902;-37.980;-63.602;2023-02-15T08:03:53;3.55;;;1.40;;
59960;SDS011;55902;-37.980;-63.602;2023-02-15T08:06:23;2.63;;;1.30;;
59960;SDS011;55902;-37.980;-63.602;2023-02-15T08:08:52;3.90;;;1.33;;
59960;SDS011;55902;-37.980;-63.602;2023-02-15T08:11:21;2.78;;;1.40;;
59960;SDS011;55902;-37.980;-63.602;2023-02-15T08:19:00;3.85;;;1.50;;
59960;SDS011;55902;-37.980;-63.602;2023-02-15T08:21:35;3.65;;;1.40;;
59960;SDS011;55902;-37.980;-63.602;2023-02-15T08:24:04;5.72;;;1.40;;
59960;SDS011;55902;-37.980;-63.602;2023-02-15T08:26:38;6.85;;;1.60;;
59960;SDS011;55902;-37.980;-63.602;2023-02-15T08:29:09;2.55;;;1.40;;
59960;SDS011;55902;-37.980;-63.602;2023-02-15T08:31:36;6.97;;;1.50;;
59960;SDS011;55902;-37.980;-63.602;2023-02-15T08:34:06;3.40;;;1.40;;
59960;SDS011;55902;-37.980;-63.602;2023-02-15T08:36:41;6.05;;;1.50;;
59960;SDS011;55902;-37.980;-63.602;2023-02-15T08:39:11;5.55;;;1.65;;
59960;SDS011;55902;-37.980;-63.602;2023-02-15T08:41:43;5.50;;;1.50;;
59960;SDS011;55902;-37.980;-63.602;2023-02-15T08:44:11;3.95;;;1.45;;
59960;SDS011;55902;-37.980;-63.602;2023-02-15T08:46:39;5.78;;;1.55;;
59960;SDS011;55902;-37.980;-63.602;2023-02-15T08:49:07;3.67;;;1.50;;
59960;SDS011;55902;-37.980;-63.602;2023-02-15T08:51:37;1.60;;;1.27;;
59960;SDS011;55902;-37.980;-63.602;2023-02-15T08:54:18;2.00;;;1.30;;
59960;SDS011;55902;-37.980;-63.602;2023-02-15T08:56:47;5.15;;;1.50;;
59960;SDS011;55902;-37.980;-63.602;2023-02-15T08:59:18;3.35;;;1.63;;
59960;SDS011;55902;-37.980;-63.602;2023-02-15T09:01:47;4.90;;;1.60;;
59960;SDS011;55902;-37.980;-63.602;2023-02-15T09:04:15;2.53;;;1.40;;
59960;SDS011;55902;-37.980;-63.602;2023-02-15T09:06:49;3.25;;;1.50;;
59960;SDS011;55902;-37.980;-63.602;2023-02-15T09:09:17;3.50;;;1.60;;
59960;SDS011;55902;-37.980;-63.602;2023-02-15T09:11:46;4.22;;;1.48;;
59960;SDS011;55902;-37.980;-63.602;2023-02-15T09:14:17;5.03;;;1.42;;
59960;SDS011;55902;-37.980;-63.602;2023-02-15T09:16:55;4.88;;;1.40;;
59960;SDS011;55902;-37.980;-63.602;2023-02-15T09:19:23;3.33;;;1.50;;
59960;SDS011;55902;-37.980;-63.602;2023-02-15T09:21:50;5.43;;;1.40;;
59960;SDS011;55902;-37.980;-63.602;2023-02-15T09:24:17;2.05;;;1.25;;
59960;SDS011;55902;-37.980;-63.602;2023-02-15T09:26:48;3.58;;;1.30;;
59960;SDS011;55902;-37.980;-63.602;2023-02-15T09:29:16;3.95;;;1.30;;
59960;SDS011;55902;-37.980;-63.602;2023-02-15T09:31:51;3.70;;;1.60;;
59960;SDS011;55902;-37.980;-63.602;2023-02-15T09:34:32;3.78;;;1.40;;
59960;SDS011;55902;-37.980;-63.602;2023-02-15T09:37:12;6.07;;;1.70;;
59960;SDS011;55902;-37.980;-63.602;2023-02-15T09:39:39;3.55;;;1.45;;
59960;SDS011;55902;-37.980;-63.602;2023-02-15T09:53:18;1.98;;;1.45;;
59960;SDS011;55902;-37.980;-63.602;2023-02-15T09:56:13;3.15;;;1.95;;
59960;SDS011;55902;-37.980;-63.602;2023-02-15T10:10:41;3.05;;;1.55;;
59960;SDS011;55902;-37.980;-63.602;2023-02-15T10:21:49;4.45;;;1.33;;
59960;SDS011;55902;-37.980;-63.602;2023-02-15T10:27:20;5.53;;;1.40;;
59960;SDS011;55902;-37.980;-63.602;2023-02-15T10:32:51;4.78;;;1.40;;
59960;SDS011;55902;-37.980;-63.602;2023-02-15T10:41:22;2.30;;;1.10;;
59960;SDS011;55902;-37.980;-63.602;2023-02-15T10:44:07;3.58;;;1.10;;
59960;SDS011;55902;-37.980;-63.602;2023-02-15T10:58:38;5.90;;;1.10;;
59960;SDS011;55902;-37.980;-63.602;2023-02-15T11:06:34;1.73;;;1.00;;
59960;SDS011;55902;-37.980;-63.602;2023-02-15T11:09:11;2.58;;;1.10;;
59960;SDS011;55902;-37.980;-63.602;2023-02-15T11:11:45;2.30;;;1.00;;
59960;SDS011;55902;-37.980;-63.602;2023-02-15T11:17:19;3.95;;;1.00;;
59960;SDS011;55902;-37.980;-63.602;2023-02-15T11:19:58;8.20;;;1.35;;
59960;SDS011;55902;-37.980;-63.602;2023-02-15T11:22:46;3.10;;;1.50;;
59960;SDS011;55902;-37.980;-63.602;2023-02-15T11:25:19;2.20;;;1.05;;
59960;SDS011;55902;-37.980;-63.602;2023-02-15T11:28:00;4.07;;;1.00;;
59960;SDS011;55902;-37.980;-63.602;2023-02-15T11:30:41;2.55;;;0.82;;
59960;SDS011;55902;-37.980;-63.602;2023-02-15T11:33:20;2.05;;;0.90;;
59960;SDS011;55902;-37.980;-63.602;2023-02-15T11:38:49;2.65;;;1.00;;
59960;SDS011;55902;-37.980;-63.602;2023-02-15T11:41:28;1.50;;;0.90;;
59960;SDS011;55902;-37.980;-63.602;2023-02-15T11:46:35;1.58;;;0.90;;
59960;SDS011;55902;-37.980;-63.602;2023-02-15T11:49:07;3.17;;;0.90;;
59960;SDS011;55902;-37.980;-63.602;2023-02-15T11:51:49;2.85;;;0.80;;
59960;SDS011;55902;-37.980;-63.602;2023-02-15T11:54:18;5.45;;;1.15;;
59960;SDS011;55902;-37.980;-63.602;2023-02-15T11:56:52;1.52;;;0.80;;
59960;SDS011;55902;-37.980;-63.602;2023-02-15T11:59:36;2.75;;;0.82;;
59960;SDS011;55902;-37.980;-63.602;2023-02-15T12:02:23;4.00;;;0.80;;
59960;SDS011;55902;-37.980;-63.602;2023-02-15T12:05:00;2.42;;;0.80;;
59960;SDS011;55902;-37.980;-63.602;2023-02-15T12:13:14;1.85;;;0.70;;
59960;SDS011;55902;-37.980;-63.602;2023-02-15T12:15:46;7.65;;;1.45;;
59960;SDS011;55902;-37.980;-63.602;2023-02-15T12:18:17;2.38;;;0.60;;
59960;SDS011;55902;-37.980;-63.602;2023-02-15T12:21:08;2.08;;;0.60;;
59960;SDS011;55902;-37.980;-63.602;2023-02-15T12:23:52;2.40;;;0.80;;
59960;SDS011;55902;-37.980;-63.602;2023-02-15T12:26:42;2.65;;;0.82;;
59960;SDS011;55902;-37.980;-63.602;2023-02-15T12:29:15;2.55;;;0.60;;
59960;SDS011;55902;-37.980;-63.602;2023-02-15T12:31:47;1.10;;;0.60;;
59960;SDS011;55902;-37.980;-63.602;2023-02-15T12:36:59;1.92;;;1.00;;
59960;SDS011;55902;-37.980;-63.602;2023-02-15T12:39:33;2.35;;;0.60;;
59960;SDS011;55902;-37.980;-63.602;2023-02-15T12:42:04;2.67;;;0.60;;
59960;SDS011;55902;-37.980;-63.602;2023-02-15T12:44:59;3.25;;;0.70;;
59960;SDS011;55902;-37.980;-63.602;2023-02-15T12:47:45;3.85;;;0.95;;
59960;SDS011;55902;-37.980;-63.602;2023-02-15T12:50:14;2.75;;;0.60;;
59960;SDS011;55902;-37.980;-63.602;2023-02-15T12:53:05;1.77;;;0.70;;
59960;SDS011;55902;-37.980;-63.602;2023-02-15T12:58:30;3.03;;;0.60;;
59960;SDS011;55902;-37.980;-63.602;2023-02-15T13:01:17;1.13;;;0.50;;
59960;SDS011;55902;-37.980;-63.602;2023-02-15T13:04:03;3.58;;;0.60;;
59960;SDS011;55902;-37.980;-63.602;2023-02-15T13:06:35;2.80;;;0.70;;
59960;SDS011;55902;-37.980;-63.602;2023-02-15T13:09:20;3.30;;;0.70;;
59960;SDS011;55902;-37.980;-63.602;2023-02-15T13:11:53;0.80;;;0.50;;
59960;SDS011;55902;-37.980;-63.602;2023-02-15T13:14:22;1.85;;;0.68;;
59960;SDS011;55902;-37.980;-63.602;2023-02-15T13:16:57;1.20;;;0.60;;
59960;SDS011;55902;-37.980;-63.602;2023-02-15T13:19:34;1.80;;;0.80;;
59960;SDS011;55902;-37.980;-63.602;2023-02-15T13:22:14;3.80;;;0.80;;
59960;SDS011;55902;-37.980;-63.602;2023-02-15T13:27:39;1.20;;;0.60;;
59960;SDS011;55902;-37.980;-63.602;2023-02-15T13:30:18;1.40;;;0.57;;
59960;SDS011;55902;-37.980;-63.602;2023-02-15T13:32:47;2.80;;;0.80;;
59960;SDS011;55902;-37.980;-63.602;2023-02-15T13:35:19;1.75;;;0.60;;
59960;SDS011;55902;-37.980;-63.602;2023-02-15T13:40:51;1.80;;;0.70;;
59960;SDS011;55902;-37.980;-63.602;2023-02-15T13:49:03;2.85;;;0.90;;
59960;SDS011;55902;-37.980;-63.602;2023-02-15T14:05:46;2.05;;;0.50;;
59960;SDS011;55902;-37.980;-63.602;2023-02-15T14:17:40;2.00;;;0.60;;
59960;SDS011;55902;-37.980;-63.602;2023-02-15T14:23:11;1.20;;;0.50;;
59960;SDS011;55902;-37.980;-63.602;2023-02-15T14:26:03;4.03;;;0.80;;
59960;SDS011;55902;-37.980;-63.602;2023-02-15T14:28:47;3.78;;;0.70;;
59960;SDS011;55902;-37.980;-63.602;2023-02-15T14:34:08;1.98;;;0.50;;
59960;SDS011;55902;-37.980;-63.602;2023-02-15T14:37:04;4.15;;;0.60;;
59960;SDS011;55902;-37.980;-63.602;2023-02-15T14:42:43;2.67;;;0.50;;
59960;SDS011;55902;-37.980;-63.602;2023-02-15T14:51:01;1.20;;;0.60;;
59960;SDS011;55902;-37.980;-63.602;2023-02-15T15:01:35;6.65;;;0.88;;
59960;SDS011;55902;-37.980;-63.602;2023-02-15T15:04:05;2.13;;;0.65;;
59960;SDS011;55902;-37.980;-63.602;2023-02-15T15:09:42;4.40;;;0.60;;
59960;SDS011;55902;-37.980;-63.602;2023-02-15T15:14:48;3.80;;;0.90;;
59960;SDS011;55902;-37.980;-63.602;2023-02-15T15:50:21;5.25;;;0.75;;
59960;SDS011;55902;-37.980;-63.602;2023-02-15T15:52:52;2.20;;;0.50;;
59960;SDS011;55902;-37.980;-63.602;2023-02-15T15:55:22;2.10;;;0.50;;
59960;SDS011;55902;-37.980;-63.602;2023-02-15T15:57:52;4.57;;;0.50;;
59960;SDS011;55902;-37.980;-63.602;2023-02-15T16:00:35;1.02;;;0.40;;
59960;SDS011;55902;-37.980;-63.602;2023-02-15T16:03:16;0.90;;;0.40;;
59960;SDS011;55902;-37.980;-63.602;2023-02-15T16:05:54;2.03;;;0.50;;
59960;SDS011;55902;-37.980;-63.602;2023-02-15T16:08:34;1.08;;;0.55;;
59960;SDS011;55902;-37.980;-63.602;2023-02-15T16:11:17;2.75;;;0.40;;
59960;SDS011;55902;-37.980;-63.602;2023-02-15T16:13:48;5.63;;;0.68;;
59960;SDS011;55902;-37.980;-63.602;2023-02-15T16:16:24;0.90;;;0.40;;
59960;SDS011;55902;-37.980;-63.602;2023-02-15T16:18:55;2.20;;;0.52;;
59960;SDS011;55902;-37.980;-63.602;2023-02-15T16:21:32;1.40;;;0.40;;
59960;SDS011;55902;-37.980;-63.602;2023-02-15T16:27:16;4.70;;;0.60;;
59960;SDS011;55902;-37.980;-63.602;2023-02-15T16:29:51;4.63;;;0.47;;
59960;SDS011;55902;-37.980;-63.602;2023-02-15T16:32:21;2.35;;;0.45;;
59960;SDS011;55902;-37.980;-63.602;2023-02-15T16:34:51;2.97;;;0.40;;
59960;SDS011;55902;-37.980;-63.602;2023-02-15T16:37:22;3.83;;;0.40;;
59960;SDS011;55902;-37.980;-63.602;2023-02-15T16:39:53;1.00;;;0.40;;
59960;SDS011;55902;-37.980;-63.602;2023-02-15T16:42:23;5.40;;;0.70;;
59960;SDS011;55902;-37.980;-63.602;2023-02-15T16:44:54;2.38;;;0.50;;
59960;SDS011;55902;-37.980;-63.602;2023-02-15T16:47:33;3.10;;;0.50;;
59960;SDS011;55902;-37.980;-63.602;2023-02-15T16:50:16;1.02;;;0.40;;
59960;SDS011;55902;-37.980;-63.602;2023-02-15T16:52:48;2.70;;;0.63;;
59960;SDS011;55902;-37.980;-63.602;2023-02-15T16:55:26;2.50;;;0.50;;
59960;SDS011;55902;-37.980;-63.602;2023-02-15T16:57:59;9.65;;;0.93;;
59960;SDS011;55902;-37.980;-63.602;2023-02-15T17:00:35;3.78;;;0.50;;
59960;SDS011;55902;-37.980;-63.602;2023-02-15T17:03:20;1.10;;;0.35;;
59960;SDS011;55902;-37.980;-63.602;2023-02-15T17:05:50;3.13;;;0.55;;
59960;SDS011;55902;-37.980;-63.602;2023-02-15T17:08:26;0.80;;;0.30;;
59960;SDS011;55902;-37.980;-63.602;2023-02-15T17:13:28;2.03;;;0.50;;
59960;SDS011;55902;-37.980;-63.602;2023-02-15T17:18:29;1.80;;;0.43;;
59960;SDS011;55902;-37.980;-63.602;2023-02-15T17:20:59;1.98;;;0.40;;
59960;SDS011;55902;-37.980;-63.602;2023-02-15T17:23:35;1.13;;;0.40;;
59960;SDS011;55902;-37.980;-63.602;2023-02-15T17:39:21;3.15;;;0.40;;
59960;SDS011;55902;-37.980;-63.602;2023-02-15T17:41:48;0.70;;;0.30;;
59960;SDS011;55902;-37.980;-63.602;2023-02-15T17:44:18;1.75;;;0.40;;
59960;SDS011;55902;-37.980;-63.602;2023-02-15T17:46:45;1.52;;;0.40;;
59960;SDS011;55902;-37.980;-63.602;2023-02-15T17:49:18;1.80;;;0.60;;
59960;SDS011;55902;-37.980;-63.602;2023-02-15T17:51:50;1.00;;;0.40;;
59960;SDS011;55902;-37.980;-63.602;2023-02-15T17:54:17;3.03;;;0.50;;
59960;SDS011;55902;-37.980;-63.602;2023-02-15T17:57:04;1.42;;;0.35;;
59960;SDS011;55902;-37.980;-63.602;2023-02-15T17:59:41;0.93;;;0.30;;
59960;SDS011;55902;-37.980;-63.602;2023-02-15T18:02:27;1.27;;;0.40;;
59960;SDS011;55902;-37.980;-63.602;2023-02-15T18:05:18;1.85;;;0.60;;
59960;SDS011;55902;-37.980;-63.602;2023-02-15T18:08:05;3.05;;;0.57;;
59960;SDS011;55902;-37.980;-63.602;2023-02-15T18:11:00;3.17;;;0.50;;
59960;SDS011;55902;-37.980;-63.602;2023-02-15T18:13:49;1.92;;;0.30;;
59960;SDS011;55902;-37.980;-63.602;2023-02-15T18:16:18;1.20;;;0.38;;
59960;SDS011;55902;-37.980;-63.602;2023-02-15T18:18:48;1.63;;;0.40;;
59960;SDS011;55902;-37.980;-63.602;2023-02-15T18:21:18;0.85;;;0.40;;
59960;SDS011;55902;-37.980;-63.602;2023-02-15T18:23:45;2.08;;;0.40;;
59960;SDS011;55902;-37.980;-63.602;2023-02-15T18:26:16;1.08;;;0.30;;
59960;SDS011;55902;-37.980;-63.602;2023-02-15T18:31:12;1.33;;;0.40;;
59960;SDS011;55902;-37.980;-63.602;2023-02-15T18:33:44;1.67;;;0.40;;
59960;SDS011;55902;-37.980;-63.602;2023-02-15T18:36:32;1.63;;;0.30;;
59960;SDS011;55902;-37.980;-63.602;2023-02-15T18:39:32;0.80;;;0.30;;
59960;SDS011;55902;-37.980;-63.602;2023-02-15T18:42:20;1.42;;;0.40;;
59960;SDS011;55902;-37.980;-63.602;2023-02-15T18:44:52;1.35;;;0.30;;
59960;SDS011;55902;-37.980;-63.602;2023-02-15T18:47:24;0.88;;;0.40;;
59960;SDS011;55902;-37.980;-63.602;2023-02-15T18:49:52;0.68;;;0.40;;
59960;SDS011;55902;-37.980;-63.602;2023-02-15T18:52:20;1.38;;;0.30;;
59960;SDS011;55902;-37.980;-63.602;2023-02-15T18:54:50;3.88;;;0.50;;
59960;SDS011;55902;-37.980;-63.602;2023-02-15T18:57:26;3.33;;;0.50;;
59960;SDS011;55902;-37.980;-63.602;2023-02-15T18:59:54;1.45;;;0.40;;
59960;SDS011;55902;-37.980;-63.602;2023-02-15T19:02:21;1.75;;;0.40;;
59960;SDS011;55902;-37.980;-63.602;2023-02-15T19:04:48;1.83;;;0.40;;
59960;SDS011;55902;-37.980;-63.602;2023-02-15T19:09:47;1.85;;;0.40;;
59960;SDS011;55902;-37.980;-63.602;2023-02-15T19:12:18;2.70;;;0.50;;
59960;SDS011;55902;-37.980;-63.602;2023-02-15T19:14:45;3.05;;;0.55;;
59960;SDS011;55902;-37.980;-63.602;2023-02-15T19:17:16;1.10;;;0.50;;
59960;SDS011;55902;-37.980;-63.602;2023-02-15T19:19:48;1.08;;;0.40;;
59960;SDS011;55902;-37.980;-63.602;2023-02-15T19:24:54;4.30;;;0.52;;
59960;SDS011;55902;-37.980;-63.602;2023-02-15T19:27:30;7.97;;;1.00;;
59960;SDS011;55902;-37.980;-63.602;2023-02-15T19:30:00;7.40;;;0.70;;
59960;SDS011;55902;-37.980;-63.602;2023-02-15T19:32:30;1.60;;;0.43;;
59960;SDS011;55902;-37.980;-63.602;2023-02-15T19:35:00;1.45;;;0.40;;
59960;SDS011;55902;-37.980;-63.602;2023-02-15T19:37:37;2.28;;;0.45;;
59960;SDS011;55902;-37.980;-63.602;2023-02-15T19:40:06;1.40;;;0.40;;